createdAt,value
2019-04-10T00:00:14.704Z,17.20
2019-04-10T00:02:45.729Z,16.00
2019-04-10T00:05:16.586Z,15.80
2019-04-10T00:07:46.233Z,15.98
2019-04-10T00:10:16.045Z,15.68
2019-04-10T00:12:45.600Z,16.45
2019-04-10T00:15:16.869Z,16.97
2019-04-10T00:17:46.241Z,17.42
2019-04-10T00:20:16.281Z,16.50
2019-04-10T00:22:46.539Z,17.32
2019-04-10T00:25:16.829Z,16.32
2019-04-10T00:27:47.174Z,15.55
2019-04-10T00:30:17.010Z,15.63
2019-04-10T00:32:46.644Z,16.35
2019-04-10T00:35:16.286Z,15.70
2019-04-10T00:37:46.035Z,16.62
2019-04-10T00:40:15.764Z,16.65
2019-04-10T00:42:45.333Z,16.40
2019-04-10T00:45:15.449Z,15.45
2019-04-10T00:47:45.550Z,15.68
2019-04-10T00:50:15.109Z,15.23
2019-04-10T00:52:44.592Z,15.70
2019-04-10T00:55:15.304Z,15.05
2019-04-10T00:57:45.578Z,15.35
2019-04-10T01:00:15.140Z,15.15
2019-04-10T01:02:45.000Z,14.50
2019-04-10T01:05:15.194Z,14.60
2019-04-10T01:07:46.079Z,14.53
2019-04-10T01:10:16.384Z,14.78
2019-04-10T01:12:46.026Z,14.83
2019-04-10T01:15:15.638Z,14.15
2019-04-10T01:17:45.277Z,14.00
2019-04-10T01:20:17.530Z,14.35
2019-04-10T01:22:46.278Z,14.20
2019-04-10T01:25:16.558Z,14.18
2019-04-10T01:27:46.529Z,14.40
2019-04-10T01:30:16.231Z,14.98
2019-04-10T01:32:46.004Z,14.38
2019-04-10T01:35:16.140Z,13.55
2019-04-10T01:37:52.082Z,15.35
2019-04-10T01:40:17.102Z,15.03
2019-04-10T01:43:01.707Z,14.55
2019-04-10T01:45:17.740Z,13.45
2019-04-10T01:47:47.620Z,13.10
2019-04-10T01:50:18.713Z,12.80
2019-04-10T01:52:49.173Z,12.43
2019-04-10T01:55:25.270Z,13.22
2019-04-10T01:57:50.885Z,12.43
2019-04-10T02:00:22.068Z,13.00
2019-04-10T02:02:53.819Z,12.47
2019-04-10T02:05:24.785Z,12.82
2019-04-10T02:08:03.497Z,15.25
2019-04-10T02:10:27.998Z,16.00
2019-04-10T02:12:57.615Z,18.20
2019-04-10T02:15:28.057Z,18.15
2019-04-10T02:17:59.101Z,18.95
2019-04-10T02:20:29.163Z,19.05
2019-04-10T02:22:59.127Z,18.92
2019-04-10T02:25:28.815Z,19.60
2019-04-10T02:27:58.576Z,20.88
2019-04-10T02:30:30.211Z,20.82
2019-04-10T02:32:59.777Z,21.57
2019-04-10T02:35:29.912Z,21.85
2019-04-10T02:38:19.882Z,23.00
2019-04-10T02:40:31.082Z,23.32
2019-04-10T02:43:00.903Z,23.80
2019-04-10T02:45:30.376Z,24.50
2019-04-10T02:48:01.500Z,25.35
2019-04-10T02:50:31.357Z,25.05
2019-04-10T02:53:01.471Z,26.37
2019-04-10T02:55:31.554Z,22.22
2019-04-10T02:58:02.695Z,21.95
2019-04-10T03:00:33.834Z,21.93
2019-04-10T03:03:03.622Z,21.65
2019-04-10T03:05:34.649Z,21.77
2019-04-10T03:08:05.449Z,22.17
2019-04-10T03:10:43.352Z,20.88
2019-04-10T03:13:06.951Z,19.35
2019-04-10T03:15:36.639Z,21.23
2019-04-10T03:18:06.452Z,20.32
2019-04-10T03:20:37.153Z,19.92
2019-04-10T03:23:07.322Z,20.90
2019-04-10T03:25:37.193Z,21.33
2019-04-10T03:28:07.130Z,21.15
2019-04-10T03:30:38.750Z,19.95
2019-04-10T03:33:14.296Z,19.80
2019-04-10T03:35:45.654Z,19.75
2019-04-10T03:38:16.147Z,19.55
2019-04-10T03:40:46.059Z,20.10
2019-04-10T03:43:15.495Z,19.17
2019-04-10T03:45:45.027Z,18.87
2019-04-10T03:48:15.837Z,19.15
2019-04-10T03:50:45.926Z,18.98
2019-04-10T03:53:16.039Z,18.82
2019-04-10T03:55:45.906Z,18.95
2019-04-10T03:58:15.484Z,19.02
2019-04-10T04:00:45.093Z,17.57
2019-04-10T04:03:14.602Z,17.67
2019-04-10T04:05:44.645Z,19.73
2019-04-10T04:08:16.317Z,19.90
2019-04-10T04:10:45.810Z,18.70
2019-04-10T04:13:17.481Z,17.60
2019-04-10T04:15:48.552Z,18.17
2019-04-10T04:18:19.194Z,16.32
2019-04-10T04:20:49.543Z,15.90
2019-04-10T04:23:19.438Z,16.90
2019-04-10T04:25:50.208Z,16.45
2019-04-10T04:28:20.110Z,16.27
2019-04-10T04:30:51.989Z,16.97
2019-04-10T04:33:21.133Z,16.45
2019-04-10T04:35:51.096Z,16.50
2019-04-10T04:38:20.677Z,15.78
2019-04-10T04:40:51.303Z,15.98
2019-04-10T04:43:27.002Z,16.27
2019-04-10T04:46:01.190Z,16.45
2019-04-10T04:48:31.780Z,16.67
2019-04-10T04:51:01.671Z,17.23
2019-04-10T04:53:32.220Z,16.95
2019-04-10T04:56:01.911Z,16.30
2019-04-10T04:58:31.338Z,16.52
2019-04-10T05:01:02.019Z,15.85
2019-04-10T05:03:31.620Z,17.42
2019-04-10T05:06:03.770Z,18.57
2019-04-10T05:08:34.461Z,17.92
2019-04-10T05:11:07.154Z,17.05
2019-04-10T05:13:36.603Z,18.00
2019-04-10T05:16:06.234Z,16.42
2019-04-10T05:18:35.789Z,17.37
2019-04-10T05:21:05.356Z,17.85
2019-04-10T05:23:35.131Z,18.35
2019-04-10T05:26:06.001Z,17.20
2019-04-10T05:28:36.241Z,16.55
2019-04-10T05:31:06.770Z,16.80
2019-04-10T05:33:36.799Z,16.75
2019-04-10T05:36:08.949Z,15.95
2019-04-10T05:38:38.759Z,16.75
2019-04-10T05:41:09.086Z,16.37
2019-04-10T05:43:39.413Z,16.30
2019-04-10T05:46:08.803Z,16.73
2019-04-10T05:48:38.285Z,16.75
2019-04-10T05:51:08.972Z,16.35
2019-04-10T05:53:39.125Z,16.20
2019-04-10T05:56:09.837Z,15.38
2019-04-10T05:58:40.765Z,16.93
2019-04-10T06:01:11.465Z,16.42
2019-04-10T06:03:41.061Z,18.10
2019-04-10T06:06:10.995Z,15.32
2019-04-10T06:08:41.265Z,15.45
2019-04-10T06:11:13.584Z,17.02
2019-04-10T06:13:43.304Z,17.30
2019-04-10T06:16:12.876Z,17.32
2019-04-10T06:18:43.049Z,17.42
2019-04-10T06:21:12.743Z,17.27
2019-04-10T06:23:43.598Z,18.07
2019-04-10T06:26:15.583Z,17.75
2019-04-10T06:28:44.295Z,18.00
2019-04-10T06:31:14.637Z,17.75
2019-04-10T06:33:44.476Z,17.40
2019-04-10T06:36:15.238Z,18.17
2019-04-10T06:38:45.404Z,17.27
2019-04-10T06:41:16.617Z,18.77
2019-04-10T06:43:46.126Z,17.35
2019-04-10T06:46:16.693Z,17.73
2019-04-10T06:48:46.472Z,18.25
2019-04-10T06:51:18.770Z,18.85
2019-04-10T06:53:58.690Z,24.00
2019-04-10T06:56:18.747Z,23.27
2019-04-10T06:59:08.733Z,20.37
2019-04-10T07:01:44.387Z,20.97
2019-04-10T07:04:10.035Z,19.55
2019-04-10T07:06:54.989Z,19.27
2019-04-10T07:09:13.824Z,18.40
2019-04-10T07:11:45.068Z,18.75
2019-04-10T07:14:14.539Z,17.50
2019-04-10T07:16:45.423Z,17.92
2019-04-10T07:19:15.729Z,17.00
2019-04-10T07:21:45.261Z,17.00
2019-04-10T07:24:15.448Z,16.65
2019-04-10T07:26:47.780Z,17.35
2019-04-10T07:29:21.057Z,18.90
2019-04-10T07:31:48.786Z,18.95
2019-04-10T07:34:23.889Z,17.80
2019-04-10T07:36:49.843Z,18.40
2019-04-10T07:39:19.472Z,18.37
2019-04-10T07:42:08.220Z,18.90
2019-04-10T07:44:37.736Z,18.48
2019-04-10T07:47:07.222Z,18.92
2019-04-10T07:49:39.415Z,18.32
2019-04-10T07:52:08.718Z,20.85
2019-04-10T07:54:38.962Z,24.00
2019-04-10T07:57:09.534Z,20.17
2019-04-10T07:59:38.959Z,18.55
2019-04-10T08:02:10.030Z,19.07
2019-04-10T08:04:39.667Z,18.90
2019-04-10T08:07:09.523Z,19.82
2019-04-10T08:09:39.938Z,21.05
2019-04-10T08:12:09.816Z,19.48
2019-04-10T08:14:39.919Z,20.43
2019-04-10T08:17:10.027Z,20.88
2019-04-10T08:19:39.744Z,19.85
2019-04-10T08:22:10.242Z,19.37
2019-04-10T08:24:40.554Z,18.87
2019-04-10T08:27:10.424Z,18.32
2019-04-10T08:29:40.880Z,18.85
2019-04-10T08:32:10.501Z,20.10
2019-04-10T08:34:40.077Z,19.75
2019-04-10T08:37:10.275Z,18.87
2019-04-10T08:39:43.793Z,20.32
2019-04-10T08:42:12.725Z,19.23
2019-04-10T08:44:42.489Z,18.92
2019-04-10T08:47:13.030Z,18.70
2019-04-10T08:49:43.252Z,18.37
2019-04-10T08:52:13.801Z,16.73
2019-04-10T08:54:44.625Z,16.77
2019-04-10T08:57:14.343Z,16.27
2019-04-10T08:59:44.554Z,16.10
2019-04-10T09:02:15.028Z,21.75
2019-04-10T09:04:44.731Z,21.73
2019-04-10T09:07:15.791Z,20.10
2019-04-10T09:09:45.838Z,19.95
2019-04-10T09:12:15.780Z,20.15
2019-04-10T09:14:45.459Z,18.98
2019-04-10T09:17:15.366Z,19.62
2019-04-10T09:19:44.904Z,18.60
2019-04-10T09:22:14.453Z,17.02
2019-04-10T09:24:44.606Z,15.25
2019-04-10T09:27:15.119Z,15.48
2019-04-10T09:29:44.730Z,15.65
2019-04-10T09:32:14.641Z,15.23
2019-04-10T09:34:46.615Z,14.87
2019-04-10T09:37:15.669Z,15.93
2019-04-10T09:39:45.494Z,16.10
2019-04-10T09:42:14.990Z,16.67
2019-04-10T09:44:44.555Z,18.45
2019-04-10T09:47:14.307Z,20.55
2019-04-10T09:49:46.714Z,20.25
2019-04-10T09:52:14.986Z,20.20
2019-04-10T09:54:45.196Z,20.82
2019-04-10T09:57:15.395Z,22.77
2019-04-10T09:59:46.095Z,23.73
2019-04-10T10:02:17.681Z,28.05
2019-04-10T10:04:48.090Z,29.85
2019-04-10T10:07:18.631Z,23.20
2019-04-10T10:09:49.514Z,22.45
2019-04-10T10:12:20.229Z,22.40
2019-04-10T10:14:49.695Z,23.85
2019-04-10T10:17:20.266Z,23.50
2019-04-10T10:19:50.540Z,23.73
2019-04-10T10:22:21.410Z,23.15
2019-04-10T10:24:51.034Z,21.35
2019-04-10T10:27:20.501Z,22.13
2019-04-10T10:29:52.995Z,21.97
2019-04-10T10:32:21.397Z,22.05
2019-04-10T10:34:51.012Z,19.42
2019-04-10T10:37:20.587Z,16.48
2019-04-10T10:39:50.657Z,16.20
2019-04-10T10:42:21.317Z,21.55
2019-04-10T10:44:51.137Z,25.30
2019-04-10T10:47:20.662Z,27.35
2019-04-10T10:49:50.814Z,23.27
2019-04-10T10:52:21.495Z,21.95
2019-04-10T10:54:51.435Z,22.32
2019-04-10T10:57:20.865Z,21.37
2019-04-10T10:59:51.452Z,17.50
2019-04-10T11:02:21.310Z,16.60
2019-04-10T11:04:51.718Z,15.25
2019-04-10T11:07:22.661Z,15.30
2019-04-10T11:09:52.957Z,17.70
2019-04-10T11:12:22.695Z,18.15
2019-04-10T11:14:53.737Z,18.10
2019-04-10T11:17:23.420Z,18.52
2019-04-10T11:19:53.309Z,19.90
2019-04-10T11:22:25.674Z,20.55
2019-04-10T11:24:55.613Z,22.07
2019-04-10T11:27:25.682Z,22.17
2019-04-10T11:29:55.229Z,35.52
2019-04-10T11:32:26.418Z,29.18
2019-04-10T11:34:56.835Z,22.50
2019-04-10T11:37:35.021Z,28.77
2019-04-10T11:39:58.663Z,27.62
2019-04-10T11:42:29.035Z,27.32
2019-04-10T11:44:59.384Z,29.42
2019-04-10T11:47:32.426Z,26.57
2019-04-10T11:50:06.100Z,21.02
2019-04-10T11:52:39.558Z,21.42
2019-04-10T11:57:38.015Z,22.13
2019-04-10T12:00:12.058Z,21.07
2019-04-10T12:02:41.919Z,18.70
2019-04-10T12:05:14.779Z,21.60
2019-04-10T12:08:14.132Z,19.20
2019-04-10T12:12:45.695Z,14.05
2019-04-10T12:15:17.089Z,15.98
2019-04-10T12:17:46.838Z,15.80
2019-04-10T12:20:16.717Z,16.25
2019-04-10T12:22:46.956Z,16.17
2019-04-10T12:25:17.261Z,15.80
2019-04-10T12:27:47.406Z,16.95
2019-04-10T12:30:17.781Z,16.60
2019-04-10T12:32:47.554Z,16.50
2019-04-10T12:35:17.309Z,15.10
2019-04-10T12:37:57.250Z,17.27
2019-04-10T12:40:19.500Z,16.25
2019-04-10T12:42:49.435Z,16.20
2019-04-10T12:45:20.058Z,21.90
2019-04-10T12:47:50.288Z,24.32
2019-04-10T12:50:21.118Z,22.70
2019-04-10T12:52:51.259Z,24.67
2019-04-10T12:55:21.045Z,21.12
2019-04-10T12:57:51.022Z,17.50
2019-04-10T13:00:23.542Z,16.17
2019-04-10T13:02:54.459Z,15.75
2019-04-10T13:05:25.110Z,15.20
2019-04-10T13:07:56.228Z,15.23
2019-04-10T13:10:25.601Z,14.87
2019-04-10T13:12:55.627Z,14.35
2019-04-10T13:15:25.532Z,13.72
2019-04-10T13:17:56.204Z,13.95
2019-04-10T13:20:26.663Z,14.28
2019-04-10T13:22:56.316Z,14.30
2019-04-10T13:25:26.074Z,15.38
2019-04-10T13:27:55.914Z,12.40
2019-04-10T13:30:25.510Z,13.30
2019-04-10T13:32:56.105Z,12.03
2019-04-10T13:35:26.172Z,15.15
2019-04-10T13:37:56.913Z,23.67
2019-04-10T13:40:27.743Z,20.00
2019-04-10T13:42:57.812Z,18.25
2019-04-10T13:45:27.435Z,15.15
2019-04-10T13:47:56.882Z,14.98
2019-04-10T13:50:26.701Z,12.47
2019-04-10T13:52:56.202Z,11.20
2019-04-10T13:55:26.382Z,10.93
2019-04-10T13:57:57.092Z,11.18
2019-04-10T14:00:47.125Z,11.40
2019-04-10T14:03:17.134Z,9.80
2019-04-10T14:05:47.684Z,9.95
2019-04-10T14:08:18.582Z,10.93
2019-04-10T14:10:48.874Z,14.40
2019-04-10T14:13:19.947Z,16.55
2019-04-10T14:15:50.434Z,14.33
2019-04-10T14:18:20.168Z,13.22
2019-04-10T14:20:49.928Z,16.45
2019-04-10T14:23:22.183Z,14.25
2019-04-10T14:25:56.583Z,12.15
2019-04-10T14:28:27.723Z,11.55
2019-04-10T14:30:59.978Z,11.53
2019-04-10T14:33:30.402Z,13.85
2019-04-10T14:36:00.053Z,13.38
2019-04-10T14:38:30.748Z,11.30
2019-04-10T14:41:01.165Z,11.08
2019-04-10T14:43:32.640Z,10.25
2019-04-10T14:46:02.767Z,10.45
2019-04-10T14:48:32.361Z,10.65
2019-04-10T14:51:01.885Z,9.30
2019-04-10T14:53:31.492Z,10.32
2019-04-10T14:56:01.862Z,10.50
2019-04-10T14:58:32.875Z,11.08
2019-04-10T15:01:06.849Z,11.45
2019-04-10T15:03:34.543Z,10.78
2019-04-10T15:06:04.994Z,10.60
2019-04-10T15:08:35.627Z,11.12
2019-04-10T15:11:06.584Z,9.83
2019-04-10T15:13:36.407Z,10.18
2019-04-10T15:16:25.393Z,10.63
2019-04-10T15:18:54.882Z,10.10
2019-04-10T15:21:25.025Z,9.58
2019-04-10T15:23:55.207Z,9.78
2019-04-10T15:26:26.031Z,9.35
2019-04-10T15:28:56.175Z,9.03
2019-04-10T15:31:27.594Z,9.03
2019-04-10T15:33:58.424Z,9.75
2019-04-10T15:36:28.396Z,8.58
2019-04-10T15:38:58.219Z,7.58
2019-04-10T15:41:27.763Z,8.10
2019-04-10T15:43:57.401Z,8.85
2019-04-10T15:46:27.009Z,9.83
2019-04-10T15:48:56.491Z,6.78
2019-04-10T15:51:26.237Z,7.55
2019-04-10T15:53:56.960Z,7.10
2019-04-10T15:56:27.657Z,7.12
2019-04-10T15:58:58.073Z,7.17
2019-04-10T16:01:29.159Z,7.10
2019-04-10T16:03:58.982Z,7.25
2019-04-10T16:06:29.365Z,15.40
2019-04-10T16:08:59.113Z,8.73
2019-04-10T16:11:39.182Z,10.38
2019-04-10T16:14:17.964Z,9.45
2019-04-10T16:16:43.106Z,7.55
2019-04-10T16:19:18.290Z,6.92
2019-04-10T16:22:01.107Z,6.15
2019-04-10T16:24:31.809Z,6.80
2019-04-10T16:27:01.352Z,8.68
2019-04-10T16:29:32.277Z,6.00
2019-04-10T16:32:14.752Z,6.53
2019-04-10T16:34:44.949Z,6.00
2019-04-10T16:37:16.738Z,6.53
2019-04-10T16:39:57.611Z,4.50
2019-04-10T16:42:20.795Z,3.98
2019-04-10T16:44:53.344Z,12.35
2019-04-10T16:47:22.934Z,5.22
2019-04-10T16:49:55.257Z,3.85
2019-04-10T16:52:25.704Z,4.70
2019-04-10T16:55:00.969Z,3.87
2019-04-10T16:57:36.686Z,5.12
2019-04-10T17:00:07.805Z,5.03
2019-04-10T17:02:37.720Z,5.25
2019-04-10T17:05:08.273Z,4.87
2019-04-10T17:07:39.105Z,4.78
2019-04-10T17:10:16.654Z,7.47
2019-04-10T17:12:42.159Z,5.20
2019-04-10T17:15:13.482Z,5.58
2019-04-10T17:17:42.999Z,7.08
2019-04-10T17:20:12.634Z,8.13
2019-04-10T17:22:46.006Z,6.15
2019-04-10T17:25:13.959Z,5.62
2019-04-10T17:27:43.812Z,5.78
2019-04-10T17:30:14.089Z,5.70
2019-04-10T17:32:44.631Z,5.65
2019-04-10T17:35:15.808Z,4.90
2019-04-10T17:37:47.780Z,5.37
2019-04-10T17:40:31.085Z,5.45
2019-04-10T17:42:50.652Z,5.47
2019-04-10T17:45:20.624Z,5.10
2019-04-10T17:47:51.433Z,6.28
2019-04-10T17:50:22.503Z,5.55
2019-04-10T17:52:53.372Z,5.40
2019-04-10T17:55:23.366Z,5.25
2019-04-10T17:58:13.676Z,5.75
2019-04-10T18:00:45.316Z,6.00
2019-04-10T18:03:18.406Z,5.67
2019-04-10T18:05:46.854Z,6.65
2019-04-10T18:08:16.740Z,6.60
2019-04-10T18:10:49.958Z,7.08
2019-04-10T18:13:18.337Z,9.08
2019-04-10T18:15:48.362Z,8.30
2019-04-10T18:18:18.115Z,16.87
2019-04-10T18:20:48.476Z,22.37
2019-04-10T18:23:20.710Z,11.50
2019-04-10T18:25:50.302Z,7.85
2019-04-10T18:28:19.912Z,10.32
2019-04-10T18:31:00.758Z,8.33
2019-04-10T18:33:34.246Z,7.22
2019-04-10T18:36:04.962Z,6.28
2019-04-10T18:38:35.542Z,5.53
2019-04-10T18:41:08.561Z,6.50
2019-04-10T18:43:37.125Z,6.53
2019-04-10T18:46:13.415Z,7.60
2019-04-10T18:48:47.194Z,7.40
2019-04-10T18:51:18.098Z,7.25
2019-04-10T18:53:49.122Z,7.17
2019-04-10T18:56:18.916Z,7.45
2019-04-10T18:59:07.983Z,8.48
2019-04-10T19:01:57.094Z,25.43
2019-04-10T19:04:34.823Z,9.28
2019-04-10T19:07:04.976Z,9.65
2019-04-10T19:09:36.802Z,9.10
2019-04-10T19:12:06.526Z,8.73
2019-04-10T19:14:37.095Z,8.73
2019-04-10T19:17:08.944Z,9.45
2019-04-10T19:19:41.803Z,10.05
2019-04-10T19:22:12.807Z,9.73
2019-04-10T19:24:42.348Z,8.68
2019-04-10T19:27:14.051Z,9.38
2019-04-10T19:29:43.525Z,9.25
2019-04-10T19:32:14.767Z,9.95
2019-04-10T19:34:45.507Z,8.93
2019-04-10T19:37:16.329Z,9.28
2019-04-10T19:39:47.187Z,9.10
2019-04-10T19:42:17.458Z,8.88
2019-04-10T19:44:47.609Z,8.90
2019-04-10T19:47:17.927Z,8.93
2019-04-10T19:49:48.676Z,8.93
2019-04-10T19:52:18.598Z,8.88
2019-04-10T19:54:49.250Z,9.25
2019-04-10T19:57:22.297Z,9.00
2019-04-10T19:59:52.359Z,9.43
2019-04-10T20:02:22.514Z,8.78
2019-04-10T20:04:52.784Z,9.23
2019-04-10T20:07:22.550Z,9.50
2019-04-10T20:09:52.793Z,8.63
2019-04-10T20:12:26.647Z,9.58
2019-04-10T20:14:57.331Z,9.33
2019-04-10T20:17:28.175Z,11.33
2019-04-10T20:19:59.916Z,8.75
2019-04-10T20:22:30.718Z,7.55
2019-04-10T20:25:00.327Z,8.10
2019-04-10T20:27:29.975Z,7.50
2019-04-10T20:30:01.593Z,6.67
2019-04-10T20:32:32.803Z,6.78
2019-04-10T20:35:02.471Z,5.67
2019-04-10T20:37:32.123Z,5.62
2019-04-10T20:40:01.894Z,6.20
2019-04-10T20:42:32.462Z,5.58
2019-04-10T20:45:02.076Z,6.22
2019-04-10T20:47:31.577Z,6.15
2019-04-10T20:50:01.853Z,6.37
2019-04-10T20:52:32.595Z,6.00
2019-04-10T20:55:03.494Z,6.75
2019-04-10T20:57:33.155Z,7.00
2019-04-10T21:00:05.129Z,7.00
2019-04-10T21:02:36.202Z,7.37
2019-04-10T21:05:09.759Z,6.67
2019-04-10T21:07:38.194Z,6.85
2019-04-10T21:10:08.710Z,6.55
2019-04-10T21:12:39.776Z,40.67
2019-04-10T21:15:09.524Z,21.23
2019-04-10T21:17:39.689Z,10.40
2019-04-10T21:20:09.853Z,8.38
2019-04-10T21:22:40.444Z,8.18
2019-04-10T21:25:10.300Z,8.23
2019-04-10T21:27:39.850Z,8.40
2019-04-10T21:30:20.006Z,8.43
2019-04-10T21:33:00.259Z,9.23
2019-04-10T21:35:32.639Z,10.13
2019-04-10T21:38:02.737Z,8.25
2019-04-10T21:40:33.205Z,9.38
2019-04-10T21:43:03.652Z,9.60
2019-04-10T21:45:35.160Z,9.30
2019-04-10T21:48:04.693Z,9.20
2019-04-10T21:50:35.527Z,8.73
2019-04-10T21:53:06.115Z,8.68
2019-04-10T21:55:35.797Z,8.95
2019-04-10T21:58:06.093Z,8.03
2019-04-10T22:00:52.845Z,7.70
2019-04-10T22:03:25.332Z,7.20
2019-04-10T22:06:13.384Z,7.35
2019-04-10T22:08:48.059Z,7.67
2019-04-10T22:11:19.121Z,7.95
2019-04-10T22:13:50.610Z,7.97
2019-04-10T22:16:22.120Z,7.47
2019-04-10T22:18:51.997Z,7.83
2019-04-10T22:21:22.778Z,7.08
2019-04-10T22:23:53.163Z,7.55
2019-04-10T22:26:22.933Z,7.90
2019-04-10T22:28:52.774Z,7.90
2019-04-10T22:31:23.695Z,7.60
2019-04-10T22:33:54.456Z,7.60
2019-04-10T22:36:24.847Z,7.45
2019-04-10T22:38:54.493Z,7.53
2019-04-10T22:41:30.352Z,7.40
2019-04-10T22:43:55.298Z,7.20
2019-04-10T22:46:25.815Z,7.37
2019-04-10T22:48:55.740Z,7.53
2019-04-10T22:51:27.051Z,7.60
2019-04-10T22:53:57.695Z,7.12
2019-04-10T22:56:27.670Z,7.28
2019-04-10T22:58:57.488Z,7.72
2019-04-10T23:01:27.192Z,7.22
2019-04-10T23:03:58.397Z,7.35
2019-04-10T23:06:29.215Z,7.72
2019-04-10T23:09:00.089Z,7.55
2019-04-10T23:11:35.554Z,7.62
2019-04-10T23:14:01.116Z,7.70
2019-04-10T23:16:30.622Z,8.63
2019-04-10T23:19:01.467Z,8.38
2019-04-10T23:21:32.374Z,7.95
2019-04-10T23:24:03.287Z,7.97
2019-04-10T23:26:35.312Z,7.95
2019-04-10T23:29:06.177Z,7.97
2019-04-10T23:31:35.913Z,8.10
2019-04-10T23:34:06.299Z,8.28
2019-04-10T23:36:36.264Z,8.33
2019-04-10T23:39:07.986Z,8.63
2019-04-10T23:41:37.946Z,8.70
2019-04-10T23:44:07.458Z,8.25
2019-04-10T23:46:37.070Z,7.50
2019-04-10T23:49:06.612Z,8.13
2019-04-10T23:51:36.952Z,8.38
2019-04-10T23:54:06.914Z,8.80
2019-04-10T23:56:37.779Z,8.50
2019-04-10T23:59:08.640Z,8.68
